createdAt,value
2023-07-31T00:00:01.162Z,80
2023-07-31T00:04:01.364Z,80
2023-07-31T00:08:01.065Z,80
2023-07-31T00:12:01.210Z,80
2023-07-31T00:16:01.281Z,80
2023-07-31T00:20:01.153Z,80
2023-07-31T00:24:01.112Z,81
2023-07-31T00:28:01.340Z,81
2023-07-31T00:32:01.107Z,81
2023-07-31T00:36:01.257Z,81
2023-07-31T00:40:01.296Z,81
2023-07-31T00:44:01.111Z,81
2023-07-31T00:48:01.878Z,81
2023-07-31T00:52:02.664Z,82
2023-07-31T00:56:01.351Z,82
2023-07-31T01:00:01.241Z,82
2023-07-31T01:04:01.197Z,81
2023-07-31T01:08:05.491Z,81
2023-07-31T01:12:02.695Z,82
2023-07-31T01:16:01.291Z,82
2023-07-31T01:20:03.370Z,82
2023-07-31T01:24:09.053Z,82
2023-07-31T01:28:10.995Z,82
2023-07-31T01:32:02.423Z,83
2023-07-31T01:36:01.101Z,83
2023-07-31T01:40:01.663Z,83
2023-07-31T01:44:01.131Z,83
2023-07-31T01:48:01.211Z,83
2023-07-31T01:52:01.157Z,83
2023-07-31T01:56:01.026Z,83
2023-07-31T02:00:01.108Z,83
2023-07-31T02:04:01.625Z,83
2023-07-31T02:08:01.313Z,83
2023-07-31T02:12:01.048Z,83
2023-07-31T02:16:01.529Z,83
2023-07-31T02:20:01.174Z,83
2023-07-31T02:24:01.088Z,83
2023-07-31T02:28:01.288Z,83
2023-07-31T02:32:01.209Z,83
2023-07-31T02:36:01.203Z,83
2023-07-31T02:40:01.198Z,83
2023-07-31T02:44:01.134Z,83
2023-07-31T02:48:01.096Z,83
2023-07-31T02:52:01.253Z,83
2023-07-31T02:56:01.269Z,83
2023-07-31T03:00:01.231Z,83
2023-07-31T03:04:01.177Z,84
2023-07-31T03:08:01.243Z,84
2023-07-31T03:12:01.057Z,84
2023-07-31T03:16:01.361Z,84
2023-07-31T03:20:01.096Z,84
2023-07-31T03:24:01.053Z,84
2023-07-31T03:28:01.302Z,84
2023-07-31T03:32:01.349Z,84
2023-07-31T03:36:02.151Z,84
2023-07-31T03:40:01.363Z,84
2023-07-31T03:44:01.124Z,84
2023-07-31T03:48:01.141Z,84
2023-07-31T03:52:01.276Z,85
2023-07-31T03:56:01.141Z,85
2023-07-31T04:00:01.073Z,85
2023-07-31T04:04:01.327Z,86
2023-07-31T04:08:01.098Z,86
2023-07-31T04:12:01.128Z,87
2023-07-31T04:16:01.225Z,87
2023-07-31T04:20:01.188Z,87
2023-07-31T04:24:01.062Z,88
2023-07-31T04:28:01.398Z,88
2023-07-31T04:32:01.164Z,89
2023-07-31T04:36:01.095Z,89
2023-07-31T04:40:01.153Z,89
2023-07-31T04:44:01.313Z,90
2023-07-31T04:48:01.226Z,90
2023-07-31T04:52:01.246Z,90
2023-07-31T04:56:01.205Z,90
2023-07-31T05:00:01.054Z,90
2023-07-31T05:04:01.530Z,90
2023-07-31T05:08:01.239Z,90
2023-07-31T05:12:01.063Z,90
2023-07-31T05:16:03.863Z,90
2023-07-31T05:20:01.161Z,90
2023-07-31T05:24:01.112Z,89
2023-07-31T05:28:01.399Z,89
2023-07-31T05:32:01.316Z,89
2023-07-31T05:36:01.036Z,89
2023-07-31T05:40:01.327Z,89
2023-07-31T05:44:01.197Z,89
2023-07-31T05:48:01.222Z,89
2023-07-31T05:52:01.175Z,89
2023-07-31T05:56:01.234Z,89
2023-07-31T06:00:01.202Z,89
2023-07-31T06:04:02.391Z,88
2023-07-31T06:08:01.410Z,88
2023-07-31T06:12:01.122Z,88
2023-07-31T06:16:05.285Z,88
2023-07-31T06:20:03.596Z,88
2023-07-31T06:24:01.202Z,88
2023-07-31T06:28:01.521Z,88
2023-07-31T06:32:04.434Z,87
2023-07-31T06:36:01.138Z,87
2023-07-31T06:40:01.157Z,87
2023-07-31T06:44:01.364Z,87
2023-07-31T06:48:01.993Z,87
2023-07-31T06:52:01.390Z,87
2023-07-31T06:56:01.192Z,87
2023-07-31T07:00:01.207Z,87
2023-07-31T07:04:01.359Z,86
2023-07-31T07:08:01.250Z,86
2023-07-31T07:12:01.122Z,85
2023-07-31T07:16:01.157Z,85
2023-07-31T07:20:01.192Z,85
2023-07-31T07:24:01.232Z,85
2023-07-31T07:28:01.178Z,85
2023-07-31T07:32:01.154Z,84
2023-07-31T07:36:01.643Z,84
2023-07-31T07:40:01.194Z,84
2023-07-31T07:44:01.269Z,83
2023-07-31T07:48:01.216Z,83
2023-07-31T07:52:01.132Z,83
2023-07-31T07:56:01.120Z,83
2023-07-31T08:00:01.101Z,83
2023-07-31T08:04:01.914Z,82
2023-07-31T08:08:01.298Z,82
2023-07-31T08:12:03.467Z,81
2023-07-31T08:16:01.100Z,81
2023-07-31T08:20:01.182Z,81
2023-07-31T08:24:01.223Z,81
2023-07-31T08:28:01.220Z,81
2023-07-31T08:32:01.164Z,81
2023-07-31T08:36:01.836Z,81
2023-07-31T08:40:01.229Z,81
2023-07-31T08:44:02.323Z,81
2023-07-31T08:48:01.448Z,81
2023-07-31T08:52:01.708Z,81
2023-07-31T08:56:02.642Z,81
2023-07-31T09:00:01.695Z,81
2023-07-31T09:04:02.532Z,81
2023-07-31T09:08:02.726Z,81
2023-07-31T09:12:01.519Z,80
2023-07-31T09:16:01.334Z,80
2023-07-31T09:20:12.414Z,80
2023-07-31T09:24:01.146Z,79
2023-07-31T09:28:01.804Z,79
2023-07-31T09:32:01.297Z,77
2023-07-31T09:36:01.206Z,77
2023-07-31T09:40:01.100Z,77
2023-07-31T09:44:01.098Z,75
2023-07-31T09:48:01.120Z,75
2023-07-31T09:52:01.323Z,74
2023-07-31T09:56:01.250Z,74
2023-07-31T10:00:01.618Z,74
2023-07-31T10:04:01.937Z,75
2023-07-31T10:08:01.409Z,75
2023-07-31T10:12:04.441Z,73
2023-07-31T10:16:01.673Z,73
2023-07-31T10:20:03.810Z,73
2023-07-31T10:24:02.515Z,74
2023-07-31T10:28:01.203Z,74
2023-07-31T10:32:01.942Z,74
2023-07-31T10:36:10.820Z,74
2023-07-31T10:40:02.881Z,74
2023-07-31T10:44:01.182Z,71
2023-07-31T10:48:02.240Z,71
2023-07-31T10:52:03.717Z,72
2023-07-31T10:56:01.881Z,72
2023-07-31T11:00:10.817Z,72
2023-07-31T11:04:10.817Z,72
2023-07-31T11:08:10.033Z,72
2023-07-31T11:12:01.379Z,72
2023-07-31T11:16:01.126Z,72
2023-07-31T11:20:01.336Z,72
2023-07-31T11:24:01.150Z,71
2023-07-31T11:28:03.357Z,71
2023-07-31T11:32:01.110Z,72
2023-07-31T11:36:01.280Z,72
2023-07-31T11:40:01.240Z,72
2023-07-31T11:44:25.470Z,74
2023-07-31T11:48:01.481Z,74
2023-07-31T11:52:01.217Z,73
2023-07-31T11:56:04.541Z,73
2023-07-31T12:00:01.925Z,73
2023-07-31T12:04:01.481Z,72
2023-07-31T12:08:08.658Z,72
2023-07-31T12:12:01.193Z,69
2023-07-31T12:16:03.323Z,69
2023-07-31T12:20:02.392Z,69
2023-07-31T12:24:02.100Z,69
2023-07-31T12:28:05.323Z,69
2023-07-31T12:32:01.309Z,66
2023-07-31T12:36:01.597Z,66
2023-07-31T12:40:09.271Z,66
2023-07-31T12:44:01.232Z,64
2023-07-31T12:48:01.726Z,64
2023-07-31T12:52:01.060Z,61
2023-07-31T12:56:01.540Z,61
2023-07-31T13:00:01.191Z,61
2023-07-31T13:04:01.291Z,60
2023-07-31T13:08:01.157Z,60
2023-07-31T13:12:01.083Z,61
2023-07-31T13:16:01.180Z,61
2023-07-31T13:20:01.629Z,61
2023-07-31T13:24:01.067Z,61
2023-07-31T13:28:04.091Z,61
2023-07-31T13:32:01.113Z,64
2023-07-31T13:36:01.247Z,64
2023-07-31T13:40:01.213Z,64
2023-07-31T13:44:01.232Z,65
2023-07-31T13:48:01.124Z,65
2023-07-31T13:52:01.146Z,65
2023-07-31T13:56:01.163Z,65
2023-07-31T14:00:01.209Z,65
2023-07-31T14:04:01.174Z,64
2023-07-31T14:08:01.290Z,64
2023-07-31T14:12:01.184Z,64
2023-07-31T14:16:01.186Z,64
2023-07-31T14:20:02.217Z,64
2023-07-31T14:24:01.228Z,65
2023-07-31T14:28:01.131Z,65
2023-07-31T14:32:01.749Z,66
2023-07-31T14:36:01.189Z,66
2023-07-31T14:40:01.562Z,66
2023-07-31T14:44:01.068Z,63
2023-07-31T14:48:01.435Z,63
2023-07-31T14:52:01.113Z,61
2023-07-31T14:56:01.153Z,61
2023-07-31T15:00:01.121Z,61
2023-07-31T15:04:01.219Z,60
2023-07-31T15:08:01.120Z,60
2023-07-31T15:12:01.845Z,59
2023-07-31T15:16:01.214Z,59
2023-07-31T15:20:04.787Z,59
2023-07-31T15:24:01.086Z,62
2023-07-31T15:28:01.244Z,62
2023-07-31T15:32:01.241Z,62
2023-07-31T15:36:01.148Z,62
2023-07-31T15:40:01.137Z,62
2023-07-31T15:44:01.572Z,65
2023-07-31T15:48:01.234Z,65
2023-07-31T15:52:01.201Z,68
2023-07-31T15:56:01.101Z,68
2023-07-31T16:00:01.450Z,68
2023-07-31T16:04:01.091Z,70
2023-07-31T16:08:01.079Z,70
2023-07-31T16:12:01.682Z,70
2023-07-31T16:16:01.259Z,70
2023-07-31T16:20:01.178Z,70
2023-07-31T16:24:01.566Z,71
2023-07-31T16:28:01.136Z,71
2023-07-31T16:32:01.186Z,72
2023-07-31T16:36:01.108Z,72
2023-07-31T16:40:01.177Z,72
2023-07-31T16:44:01.086Z,73
2023-07-31T16:48:01.761Z,73
2023-07-31T16:52:01.126Z,73
2023-07-31T16:56:02.158Z,73
2023-07-31T17:00:01.190Z,73
2023-07-31T17:04:01.613Z,74
2023-07-31T17:08:01.045Z,74
2023-07-31T17:12:01.918Z,75
2023-07-31T17:16:01.187Z,75
2023-07-31T17:20:01.236Z,75
2023-07-31T17:24:01.822Z,76
2023-07-31T17:28:01.314Z,76
2023-07-31T17:32:01.214Z,77
2023-07-31T17:36:01.202Z,77
2023-07-31T17:40:01.049Z,77
2023-07-31T17:44:01.617Z,78
2023-07-31T17:48:01.111Z,78
2023-07-31T17:52:02.181Z,78
2023-07-31T17:56:01.172Z,78
2023-07-31T18:00:01.080Z,78
2023-07-31T18:04:01.112Z,79
2023-07-31T18:08:01.425Z,79
2023-07-31T18:12:01.077Z,79
2023-07-31T18:16:05.347Z,79
2023-07-31T18:20:01.284Z,79
2023-07-31T18:24:01.302Z,80
2023-07-31T18:28:01.094Z,80
2023-07-31T18:32:01.251Z,79
2023-07-31T18:36:03.334Z,79
2023-07-31T18:40:01.263Z,79
2023-07-31T18:44:01.265Z,80
2023-07-31T18:48:01.302Z,80
2023-07-31T18:52:01.146Z,80
2023-07-31T18:56:01.302Z,80
2023-07-31T19:00:01.252Z,80
2023-07-31T19:04:01.294Z,78
2023-07-31T19:08:04.851Z,78
2023-07-31T19:12:01.252Z,78
2023-07-31T19:16:01.221Z,78
2023-07-31T19:20:01.336Z,78
2023-07-31T19:24:01.058Z,78
2023-07-31T19:28:01.297Z,78
2023-07-31T19:32:01.158Z,78
2023-07-31T19:36:01.273Z,78
2023-07-31T19:40:01.103Z,78
2023-07-31T19:44:01.184Z,78
2023-07-31T19:48:01.166Z,78
2023-07-31T19:52:01.085Z,78
2023-07-31T19:56:01.211Z,78
2023-07-31T20:00:01.419Z,78
2023-07-31T20:04:01.077Z,78
2023-07-31T20:08:01.602Z,78
2023-07-31T20:12:01.147Z,78
2023-07-31T20:16:01.891Z,78
2023-07-31T20:20:01.144Z,78
2023-07-31T20:24:01.231Z,78
2023-07-31T20:28:01.594Z,78
2023-07-31T20:32:01.346Z,78
2023-07-31T20:36:00.998Z,78
2023-07-31T20:40:05.868Z,78
2023-07-31T20:44:01.090Z,77
2023-07-31T20:48:01.266Z,77
2023-07-31T20:52:01.065Z,77
2023-07-31T20:56:02.549Z,77
2023-07-31T21:00:01.068Z,77
2023-07-31T21:04:01.488Z,78
2023-07-31T21:08:02.122Z,78
2023-07-31T21:12:01.111Z,77
2023-07-31T21:16:01.344Z,77
2023-07-31T21:20:01.371Z,77
2023-07-31T21:24:01.075Z,78
2023-07-31T21:28:01.594Z,78
2023-07-31T21:32:01.203Z,78
2023-07-31T21:36:01.032Z,78
2023-07-31T21:40:01.045Z,78
2023-07-31T21:44:01.152Z,78
2023-07-31T21:48:01.152Z,78
2023-07-31T21:52:01.087Z,78
2023-07-31T21:56:01.232Z,78
2023-07-31T22:00:01.281Z,78
2023-07-31T22:04:01.467Z,78
2023-07-31T22:08:01.310Z,78
2023-07-31T22:12:01.081Z,78
2023-07-31T22:16:01.351Z,78
2023-07-31T22:20:01.254Z,78
2023-07-31T22:24:01.180Z,78
2023-07-31T22:28:20.489Z,78
2023-07-31T22:32:01.261Z,78
2023-07-31T22:36:01.102Z,78
2023-07-31T22:40:01.184Z,78
2023-07-31T22:44:01.407Z,78
2023-07-31T22:48:01.284Z,78
2023-07-31T22:52:01.073Z,78
2023-07-31T22:56:03.062Z,78
2023-07-31T23:00:01.085Z,78
2023-07-31T23:04:01.164Z,78
2023-07-31T23:08:01.156Z,78
2023-07-31T23:12:01.308Z,79
2023-07-31T23:16:01.113Z,79
2023-07-31T23:20:01.281Z,79
2023-07-31T23:24:01.206Z,79
2023-07-31T23:28:01.234Z,79
2023-07-31T23:32:01.286Z,78
2023-07-31T23:36:07.214Z,78
2023-07-31T23:40:01.286Z,78
2023-07-31T23:44:01.405Z,79
2023-07-31T23:48:01.253Z,79
2023-07-31T23:52:01.168Z,79
2023-07-31T23:56:02.167Z,79
